Time;durP1;ratioP1;P1;durP2;ratioP2;P2;SDS_P1;SDS_P2;PMS_P1;PMS_P2;Temp;Humidity;BMP_temperature;BMP_pressure;BME280_temperature;BME280_humidity;BME280_pressure;Samples;Min_cycle;Max_cycle;Signal;HPM_P1;HPM_P2
2021/01/24 00:01:58;;;;;;;;;34.20;30.00;;;;;12.37;44.35;96832.84;6195839;28;128538;-60
2021/01/24 00:05:00;;;;;;;;;31.25;29.75;;;;;12.28;44.71;96815.63;6185379;28;125610;-59
2021/01/24 00:08:01;;;;;;;;;32.00;28.60;;;;;12.06;44.35;96789.88;6195400;28;124784;-59
2021/01/24 00:11:02;;;;;;;;;32.40;29.40;;;;;12.34;44.51;96804.50;6206188;28;126846;-59
2021/01/24 00:14:04;;;;;;;;;35.20;29.00;;;;;12.14;44.60;96778.47;6185320;28;125508;-59
2021/01/24 00:17:05;;;;;;;;;32.00;27.50;;;;;12.32;44.46;96779.66;6196716;28;124739;-59
2021/01/24 00:20:08;;;;;;;;;31.80;29.80;;;;;12.41;44.36;96788.75;6186658;28;126363;-59
2021/01/24 00:23:10;;;;;;;;;31.00;28.60;;;;;12.10;44.18;96719.91;6195043;28;127046;-59
2021/01/24 00:26:11;;;;;;;;;31.00;28.00;;;;;12.41;44.34;96777.94;6190867;28;125501;-59
2021/01/24 00:29:13;;;;;;;;;33.33;29.00;;;;;12.14;44.34;96727.16;6183011;28;127557;-59
2021/01/24 00:32:14;;;;;;;;;30.40;28.60;;;;;12.40;44.27;96765.56;6172628;28;124289;-58
2021/01/24 00:35:17;;;;;;;;;32.00;28.40;;;;;12.30;44.21;96754.03;6193046;28;125527;-59
2021/01/24 00:38:18;;;;;;;;;33.50;30.00;;;;;12.24;44.07;96738.94;6209262;28;127640;-59
2021/01/24 00:41:20;;;;;;;;;31.20;28.80;;;;;12.30;44.18;96749.44;6189551;28;127828;-59
2021/01/24 00:44:21;;;;;;;;;31.00;29.00;;;;;12.38;44.13;96756.91;6167895;28;126071;-60
2021/01/24 00:47:23;;;;;;;;;31.60;28.00;;;;;12.31;44.30;96744.84;6181800;28;128412;-59
2021/01/24 00:50:24;;;;;;;;;33.00;29.00;;;;;12.30;44.30;96738.63;6183985;28;126389;-59
2021/01/24 00:53:26;;;;;;;;;34.25;29.75;;;;;12.24;44.17;96745.16;6208297;28;127623;-60
2021/01/24 00:56:29;;;;;;;;;33.40;30.00;;;;;12.20;44.25;96744.13;6193237;28;126453;-59
2021/01/24 00:59:30;;;;;;;;;33.20;29.00;;;;;12.02;44.33;96720.53;6208497;28;126537;-60
2021/01/24 01:02:31;;;;;;;;;34.33;30.33;;;;;12.13;44.46;96744.44;6199543;28;126341;-59
2021/01/24 01:05:33;;;;;;;;;32.00;28.00;;;;;12.09;44.55;96745.28;6202516;28;126979;-59
2021/01/24 01:08:35;;;;;;;;;31.50;28.50;;;;;11.84;44.52;96702.31;6189806;28;127900;-59
2021/01/24 01:11:36;;;;;;;;;29.00;28.00;;;;;12.12;44.49;96737.41;6207935;28;125432;-58
2021/01/24 01:14:37;;;;;;;;;31.00;28.00;;;;;12.12;44.66;96732.03;6195235;28;125798;-60
2021/01/24 01:17:39;;;;;;;;;30.00;28.00;;;;;12.10;44.58;96720.72;6206399;28;125345;-59
2021/01/24 01:20:40;;;;;;;;;34.40;30.00;;;;;12.08;44.80;96728.28;6209028;28;128041;-59
2021/01/24 01:23:41;;;;;;;;;35.00;30.00;;;;;12.05;44.85;96722.66;6207692;28;126988;-59
2021/01/24 01:26:43;;;;;;;;;32.60;29.60;;;;;11.83;44.84;96693.41;6205444;28;125249;-59
2021/01/24 01:29:45;;;;;;;;;31.75;30.00;;;;;11.95;44.84;96704.66;6189247;28;127752;-59
2021/01/24 01:32:46;;;;;;;;;34.40;28.00;;;;;11.73;44.87;96672.69;6193705;28;128705;-59
2021/01/24 01:35:47;;;;;;;;;33.20;29.80;;;;;11.95;44.97;96723.53;6194131;28;128506;-59
2021/01/24 01:38:49;;;;;;;;;32.40;30.00;;;;;11.85;45.11;96736.31;6189149;28;126603;-59
2021/01/24 01:41:50;;;;;;;;;30.60;29.60;;;;;11.64;45.27;96703.22;6181760;28;126487;-59
2021/01/24 01:44:51;;;;;;;;;33.80;30.00;;;;;11.81;45.23;96729.88;6184041;28;127606;-59
2021/01/24 01:47:53;;;;;;;;;31.00;30.00;;;;;11.82;45.38;96731.50;6190589;28;126485;-59
2021/01/24 01:50:58;;;;;;;;;31.20;29.00;;;;;11.80;45.31;96731.75;6183435;28;126445;-59
2021/01/24 01:54:00;;;;;;;;;30.67;29.00;;;;;11.81;45.41;96735.28;6184855;28;125798;-59
2021/01/24 01:57:01;;;;;;;;;34.25;29.50;;;;;11.83;45.59;96724.97;6186727;28;126639;-59
2021/01/24 02:00:07;;;;;;;;;34.00;30.00;;;;;11.85;45.47;96712.00;6188144;28;125894;-59
2021/01/24 02:03:34;;;;;;;;;32.00;28.00;;;;;11.87;45.53;96712.56;6212342;28;127234;-59
2021/01/24 02:06:47;;;;;;;;;39.75;32.00;;;;;11.91;45.27;96714.41;6191104;28;126880;-59
2021/01/24 02:09:56;;;;;;;;;36.00;30.00;;;;;11.96;45.27;96713.56;6211987;28;126599;-59
2021/01/24 02:13:21;;;;;;;;;34.40;29.80;;;;;11.95;45.27;96711.94;6211330;28;126159;-59
2021/01/24 02:16:23;;;;;;;;;32.00;29.60;;;;;11.95;45.31;96701.94;6208778;28;126660;-58
2021/01/24 02:20:02;;;;;;;;;34.40;30.00;;;;;11.96;45.35;96697.34;6187634;28;128887;-58
2021/01/24 02:23:06;;;;;;;;;32.40;30.00;;;;;11.94;45.47;96708.44;6198906;28;127113;-59
2021/01/24 02:26:10;;;;;;;;;36.25;32.00;;;;;11.98;45.55;96711.34;6169394;28;125816;-59
2021/01/24 02:29:24;;;;;;;;;36.00;30.00;;;;;11.82;45.42;96683.72;6188126;28;127295;-59
2021/01/24 02:32:27;;;;;;;;;33.00;30.00;;;;;11.92;45.22;96678.22;6202940;28;125141;-59
2021/01/24 02:35:33;;;;;;;;;32.00;29.00;;;;;12.03;45.23;96697.81;6194417;28;126373;-59
2021/01/24 02:38:38;;;;;;;;;35.25;30.00;;;;;12.06;45.23;96705.38;6193264;28;125980;-59
2021/01/24 02:41:40;;;;;;;;;32.60;29.40;;;;;12.09;45.01;96702.91;6210769;28;126511;-60
2021/01/24 02:44:42;;;;;;;;;31.00;27.00;;;;;12.09;45.14;96702.09;6210839;28;126001;-58
2021/01/24 02:47:45;;;;;;;;;31.00;27.20;;;;;12.08;45.29;96690.47;6193790;28;126570;-59
2021/01/24 02:50:48;;;;;;;;;32.75;29.00;;;;;12.14;44.94;96699.34;6197002;28;127343;-60
2021/01/24 02:53:50;;;;;;;;;34.40;30.00;;;;;12.05;44.93;96688.34;6197047;28;126467;-59
2021/01/24 02:56:52;;;;;;;;;36.60;30.00;;;;;12.06;44.92;96679.16;6191510;28;127125;-59
2021/01/24 02:59:53;;;;;;;;;33.00;29.20;;;;;12.14;45.29;96683.94;6186331;28;126522;-58
2021/01/24 03:02:55;;;;;;;;;32.00;29.00;;;;;11.78;45.28;96641.38;6185799;28;125932;-59
2021/01/24 03:05:57;;;;;;;;;33.00;30.00;;;;;12.09;45.14;96686.69;6185596;28;127363;-59
2021/01/24 03:08:59;;;;;;;;;35.00;30.00;;;;;11.84;45.00;96645.63;6187012;28;127672;-59
2021/01/24 03:12:03;;;;;;;;;34.00;30.00;;;;;12.05;45.24;96677.56;6210504;28;124907;-59
2021/01/24 03:15:06;;;;;;;;;27.60;27.00;;;;;11.97;45.24;96675.44;6210964;28;127667;-59
2021/01/24 03:18:11;;;;;;;;;33.40;30.00;;;;;11.93;45.32;96674.41;6209453;28;126934;-58
2021/01/24 03:21:15;;;;;;;;;32.50;30.00;;;;;11.87;45.27;96667.47;6195164;28;124009;-59
2021/01/24 03:24:17;;;;;;;;;36.00;32.00;;;;;11.82;45.58;96672.09;6183677;28;124012;-59
2021/01/24 03:27:19;;;;;;;;;34.00;30.00;;;;;11.34;45.60;96592.88;6202098;28;126574;-59
2021/01/24 03:30:21;;;;;;;;;30.50;28.50;;;;;11.80;45.72;96653.47;6209711;28;126034;-59
2021/01/24 03:33:22;;;;;;;;;33.60;28.60;;;;;11.81;45.76;96644.31;6210244;28;126502;-59
2021/01/24 03:36:25;;;;;;;;;36.00;31.00;;;;;11.82;45.68;96637.81;6209291;28;124987;-59
2021/01/24 03:39:26;;;;;;;;;35.00;31.00;;;;;11.80;45.55;96631.88;6192940;28;127758;-59
2021/01/24 03:42:28;;;;;;;;;34.00;30.00;;;;;11.83;45.55;96625.91;6209896;28;126162;-59
2021/01/24 03:45:30;;;;;;;;;33.40;30.00;;;;;11.84;45.76;96615.91;6209684;28;126526;-60
2021/01/24 03:48:32;;;;;;;;;32.80;30.00;;;;;11.84;45.83;96618.63;6207472;28;127211;-59
2021/01/24 03:51:34;;;;;;;;;38.00;31.00;;;;;11.68;45.70;96590.94;6199737;28;128004;-59
2021/01/24 03:54:36;;;;;;;;;32.00;30.00;;;;;11.75;45.85;96613.03;6199795;28;125231;-59
2021/01/24 03:57:37;;;;;;;;;35.00;31.00;;;;;11.87;45.77;96626.16;6208021;28;126506;-59
2021/01/24 04:00:38;;;;;;;;;36.00;30.00;;;;;11.89;45.83;96632.06;6208904;28;125434;-59
2021/01/24 04:03:40;;;;;;;;;39.00;33.00;;;;;11.89;45.70;96630.19;6208592;28;126528;-59
2021/01/24 04:06:42;;;;;;;;;34.80;31.80;;;;;11.74;45.76;96606.03;6198057;28;125052;-59
2021/01/24 04:09:43;;;;;;;;;35.20;30.20;;;;;11.78;45.66;96611.69;6196998;28;125396;-59
2021/01/24 04:12:45;;;;;;;;;31.60;29.00;;;;;11.82;45.78;96608.13;6191973;28;127783;-59
2021/01/24 04:15:47;;;;;;;;;35.80;29.80;;;;;11.82;45.85;96601.91;6204646;28;127498;-59
2021/01/24 04:18:48;;;;;;;;;28.00;27.00;;;;;11.83;45.80;96603.50;6185568;28;126306;-59
2021/01/24 04:21:49;;;;;;;;;32.00;30.00;;;;;11.83;45.69;96607.00;6203293;28;125747;-59
2021/01/24 04:24:51;;;;;;;;;32.40;29.60;;;;;11.50;45.68;96534.97;6200957;28;125572;-59
2021/01/24 04:27:52;;;;;;;;;34.00;28.00;;;;;11.75;45.70;96585.25;6197258;28;126405;-59
2021/01/24 04:30:54;;;;;;;;;30.00;28.00;;;;;11.55;45.79;96553.81;6208401;28;126997;-59
2021/01/24 04:33:55;;;;;;;;;33.50;31.00;;;;;11.75;45.94;96587.94;6208659;28;126477;-60
2021/01/24 04:36:57;;;;;;;;;34.00;30.00;;;;;11.51;46.00;96558.19;6199534;28;127485;-59
2021/01/24 04:39:58;;;;;;;;;33.40;29.00;;;;;11.74;45.98;96579.03;6184904;28;125288;-59
2021/01/24 04:43:00;;;;;;;;;32.33;30.00;;;;;11.77;45.99;96570.38;6195504;28;124609;-60
2021/01/24 04:46:01;;;;;;;;;34.67;29.67;;;;;11.76;46.04;96566.06;6182580;28;125318;-59
2021/01/24 04:49:04;;;;;;;;;39.20;34.20;;;;;11.63;46.17;96551.31;6183424;28;127541;-59
2021/01/24 04:52:06;;;;;;;;;44.00;35.20;;;;;11.77;46.21;96580.38;6196623;28;129470;-59
2021/01/24 04:55:08;;;;;;;;;45.00;36.00;;;;;11.74;46.25;96568.25;6185458;28;126209;-59
2021/01/24 04:58:10;;;;;;;;;40.60;34.60;;;;;11.56;46.19;96537.34;6164039;28;126242;-58
2021/01/24 05:01:15;;;;;;;;;44.40;36.00;;;;;11.72;46.46;96551.50;6182875;28;126409;-59
2021/01/24 05:04:17;;;;;;;;;50.60;38.20;;;;;11.68;46.35;96553.16;6198169;28;126596;-60
2021/01/24 05:07:19;;;;;;;;;47.00;38.00;;;;;11.65;46.40;96559.13;6206774;28;126709;-59
2021/01/24 05:10:28;;;;;;;;;45.40;38.60;;;;;11.50;46.63;96583.53;6192566;28;125623;-59
2021/01/24 05:13:30;;;;;;;;;52.20;41.80;;;;;11.44;46.67;96581.97;6183665;28;125544;-59
2021/01/24 05:16:31;;;;;;;;;50.00;40.00;;;;;11.16;46.85;96535.81;6193018;28;126063;-59
2021/01/24 05:19:36;;;;;;;;;47.25;38.25;;;;;11.15;46.80;96531.50;6207834;28;126295;-58
2021/01/24 05:22:40;;;;;;;;;47.80;39.00;;;;;11.38;46.88;96564.25;6206641;28;126042;-59
2021/01/24 05:25:42;;;;;;;;;47.00;39.00;;;;;11.38;46.79;96561.53;6207563;28;128444;-59
2021/01/24 05:28:47;;;;;;;;;52.25;41.00;;;;;11.43;46.58;96569.59;6186052;28;128405;-60
2021/01/24 05:31:51;;;;;;;;;49.40;39.20;;;;;11.41;46.80;96564.47;6187575;28;124930;-58
2021/01/24 05:34:53;;;;;;;;;48.50;40.00;;;;;11.36;46.69;96566.41;6194173;28;127971;-59
2021/01/24 05:37:54;;;;;;;;;48.20;39.20;;;;;11.31;46.72;96567.25;6211716;28;127838;-59
2021/01/24 05:40:59;;;;;;;;;45.00;36.00;;;;;11.27;46.59;96550.03;6190497;28;126683;-59
2021/01/24 05:44:02;;;;;;;;;42.60;35.20;;;;;11.29;46.57;96548.66;6193019;28;126591;-59
2021/01/24 05:47:03;;;;;;;;;38.75;33.50;;;;;11.26;46.33;96533.03;6205700;28;126603;-59
2021/01/24 05:50:09;;;;;;;;;44.00;35.00;;;;;11.13;46.46;96532.91;6209261;28;125088;-59
2021/01/24 05:53:12;;;;;;;;;41.50;34.00;;;;;11.11;46.53;96549.34;6176802;28;124755;-59
2021/01/24 05:56:19;;;;;;;;;37.00;33.00;;;;;11.02;46.58;96532.16;6208586;28;126095;-59
2021/01/24 05:59:20;;;;;;;;;36.40;32.00;;;;;10.97;46.71;96517.91;6209521;28;126690;-59
2021/01/24 06:02:24;;;;;;;;;38.60;32.40;;;;;10.99;46.49;96529.25;6192266;28;127069;-59
2021/01/24 06:05:25;;;;;;;;;43.50;35.00;;;;;10.97;46.52;96532.22;6210079;28;124972;-58
2021/01/24 06:08:29;;;;;;;;;44.00;36.00;;;;;10.73;46.99;96545.59;6210481;28;127582;-58
2021/01/24 06:11:31;;;;;;;;;40.60;34.80;;;;;10.66;47.25;96533.50;6186414;28;124871;-58
2021/01/24 06:14:35;;;;;;;;;46.40;38.00;;;;;10.26;47.37;96457.25;6211160;28;126521;-59
2021/01/24 06:17:38;;;;;;;;;43.80;34.80;;;;;10.78;47.23;96529.38;6202988;28;124749;-59
2021/01/24 06:21:04;;;;;;;;;44.80;37.80;;;;;10.78;47.13;96540.16;6210811;28;127152;-59
2021/01/24 06:24:11;;;;;;;;;43.00;36.00;;;;;10.58;47.14;96510.66;6199501;28;127238;-59
2021/01/24 06:27:20;;;;;;;;;45.50;36.00;;;;;10.76;46.88;96541.50;6186090;28;124964;-58
2021/01/24 06:30:24;;;;;;;;;43.00;35.20;;;;;10.77;47.09;96546.63;6190111;28;126770;-59
2021/01/24 06:33:26;;;;;;;;;46.60;36.00;;;;;10.63;47.28;96542.13;6210868;28;125597;-59
2021/01/24 06:36:28;;;;;;;;;45.00;36.00;;;;;10.65;47.46;96532.69;6207056;28;125361;-59
2021/01/24 06:39:39;;;;;;;;;43.60;36.00;;;;;10.66;47.34;96534.28;6209509;28;125317;-59
2021/01/24 06:42:43;;;;;;;;;45.20;37.20;;;;;10.67;47.29;96527.03;6197862;28;126038;-59
2021/01/24 06:45:45;;;;;;;;;45.60;35.00;;;;;10.68;47.33;96542.91;6184615;28;125640;-59
2021/01/24 06:48:48;;;;;;;;;47.00;38.00;;;;;10.52;47.40;96502.88;6184729;28;128035;-59
2021/01/24 06:51:50;;;;;;;;;45.00;35.00;;;;;10.74;47.10;96536.41;6186524;28;124701;-59
2021/01/24 06:54:51;;;;;;;;;45.80;37.00;;;;;10.78;47.07;96539.34;6193021;28;125467;-59
2021/01/24 06:57:53;;;;;;;;;47.80;40.00;;;;;10.69;47.23;96541.84;6179372;28;127561;-59
2021/01/24 07:01:19;;;;;;;;;44.40;36.40;;;;;10.65;47.39;96540.75;6203467;28;126488;-58
2021/01/24 07:04:28;;;;;;;;;47.00;38.00;;;;;10.66;47.28;96541.56;6210951;28;125442;-59
2021/01/24 07:07:31;;;;;;;;;47.00;37.20;;;;;10.68;47.37;96539.41;6206438;28;125428;-60
2021/01/24 07:10:38;;;;;;;;;44.60;37.60;;;;;10.62;47.38;96544.03;6210905;28;125837;-59
2021/01/24 07:13:39;;;;;;;;;42.60;34.60;;;;;10.54;47.74;96541.13;6195176;28;126102;-58
2021/01/24 07:16:44;;;;;;;;;48.60;39.00;;;;;10.60;47.60;96543.53;6208207;28;124966;-59
2021/01/24 07:19:48;;;;;;;;;44.25;38.00;;;;;10.11;47.48;96464.59;6200346;28;127638;-59
2021/01/24 07:22:51;;;;;;;;;49.40;39.60;;;;;10.68;47.34;96539.41;6191116;28;126062;-59
2021/01/24 07:25:55;;;;;;;;;48.60;38.60;;;;;10.46;47.59;96520.16;6198784;28;127955;-59
2021/01/24 07:28:57;;;;;;;;;47.00;38.00;;;;;10.56;47.55;96526.28;6204835;28;125575;-59
2021/01/24 07:31:58;;;;;;;;;47.80;39.00;;;;;10.56;47.50;96522.78;6195894;28;126435;-59
2021/01/24 07:35:00;;;;;;;;;46.60;38.00;;;;;10.71;47.40;96538.84;6200571;28;126115;-59
2021/01/24 07:38:07;;;;;;;;;46.00;38.00;;;;;10.60;47.61;96540.00;6208770;28;126854;-59
2021/01/24 07:41:09;;;;;;;;;45.25;37.50;;;;;10.63;47.77;96542.13;6207087;28;126529;-59
2021/01/24 07:44:11;;;;;;;;;46.00;38.00;;;;;10.67;47.58;96545.88;6169271;28;125899;-59
2021/01/24 07:47:14;;;;;;;;;40.60;33.00;;;;;10.73;47.54;96542.09;6194381;28;125141;-59
2021/01/24 07:50:17;;;;;;;;;46.80;36.00;;;;;10.53;47.64;96505.28;6198718;28;126013;-59
2021/01/24 07:53:19;;;;;;;;;43.75;36.00;;;;;10.30;48.41;96547.19;6190659;28;125391;-59
2021/01/24 07:56:20;;;;;;;;;48.00;39.40;;;;;10.20;48.80;96541.03;6202346;28;126621;-59
2021/01/24 07:59:22;;;;;;;;;52.00;42.00;;;;;10.29;48.79;96525.91;6199771;28;126793;-59
2021/01/24 08:02:26;;;;;;;;;45.00;37.00;;;;;10.06;48.55;96472.69;6201634;28;127907;-59
2021/01/24 08:05:30;;;;;;;;;50.00;40.40;;;;;10.34;48.30;96490.88;6208390;28;124733;-59
2021/01/24 08:08:32;;;;;;;;;48.20;39.60;;;;;10.72;47.97;96548.53;6208159;28;126148;-59
2021/01/24 08:11:34;;;;;;;;;46.25;38.00;;;;;10.82;47.96;96575.44;6186149;28;128130;-60
2021/01/24 08:14:36;;;;;;;;;47.00;39.75;;;;;10.88;47.77;96578.91;6208880;28;127489;-59
2021/01/24 08:17:40;;;;;;;;;43.00;37.00;;;;;10.63;47.77;96532.19;6197112;28;126498;-59
2021/01/24 08:20:42;;;;;;;;;45.00;38.00;;;;;10.74;47.71;96543.69;6188739;28;123995;-58
2021/01/24 08:23:44;;;;;;;;;41.80;35.00;;;;;10.79;47.60;96559.84;6203845;28;127283;-59
2021/01/24 08:26:46;;;;;;;;;46.40;37.40;;;;;10.82;47.74;96583.53;6197971;28;126201;-59
2021/01/24 08:29:48;;;;;;;;;45.00;37.00;;;;;10.85;47.83;96596.44;6198680;28;128821;-59
2021/01/24 08:32:49;;;;;;;;;47.00;38.00;;;;;10.93;47.98;96605.81;6206147;28;126514;-59
2021/01/24 08:35:51;;;;;;;;;43.80;35.00;;;;;10.89;47.83;96620.94;6205355;28;124560;-59
2021/01/24 08:38:56;;;;;;;;;42.00;35.00;;;;;10.82;47.98;96618.56;6202184;28;126413;-58
2021/01/24 08:41:58;;;;;;;;;42.33;34.67;;;;;10.44;48.13;96579.69;6205325;28;127199;-59
2021/01/24 08:45:05;;;;;;;;;48.40;39.20;;;;;10.67;48.44;96627.53;6206343;28;126649;-59
2021/01/24 08:48:14;;;;;;;;;43.75;36.00;;;;;10.75;48.39;96618.84;6198597;28;127020;-59
2021/01/24 08:51:15;;;;;;;;;47.00;38.00;;;;;10.53;48.32;96578.03;6204859;28;124862;-59
2021/01/24 08:54:31;;;;;;;;;50.50;38.00;;;;;10.89;48.42;96615.56;6197559;28;126714;-59
2021/01/24 08:57:34;;;;;;;;;47.20;39.00;;;;;10.71;48.48;96596.25;6203558;28;125494;-59
2021/01/24 09:00:35;;;;;;;;;46.75;37.00;;;;;10.84;48.41;96606.44;6181213;28;126404;-58
2021/01/24 09:03:36;;;;;;;;;42.00;35.20;;;;;10.80;48.38;96626.09;6203636;28;126625;-58
2021/01/24 09:06:38;;;;;;;;;47.60;38.00;;;;;10.91;48.40;96619.56;6203983;28;127457;-58
2021/01/24 09:09:52;;;;;;;;;40.60;33.00;;;;;11.01;48.13;96614.13;6201778;28;125368;-58
2021/01/24 09:12:56;;;;;;;;;40.00;33.00;;;;;10.94;47.78;96610.13;6205043;28;128607;-59
2021/01/24 09:15:59;;;;;;;;;37.00;33.00;;;;;10.98;47.50;96624.66;6199886;28;127343;-59
2021/01/24 09:19:01;;;;;;;;;43.00;34.00;;;;;10.74;47.64;96608.38;6205955;28;127078;-60
2021/01/24 09:22:05;;;;;;;;;31.00;28.25;;;;;10.56;47.83;96598.19;6205405;28;125386;-58
2021/01/24 09:25:07;;;;;;;;;28.40;26.00;;;;;10.81;47.59;96630.41;6204296;28;126468;-58
2021/01/24 09:28:09;;;;;;;;;32.80;29.20;;;;;10.64;47.86;96632.66;6200671;28;126456;-59
2021/01/24 09:31:10;;;;;;;;;34.67;30.33;;;;;10.88;47.91;96655.19;6200612;28;126728;-59
2021/01/24 09:34:12;;;;;;;;;34.80;30.40;;;;;11.00;47.26;96642.16;6205040;28;125467;-59
2021/01/24 09:37:13;;;;;;;;;32.25;30.00;;;;;11.29;46.85;96643.03;6199662;28;125237;-59
2021/01/24 09:40:15;;;;;;;;;35.00;30.00;;;;;11.68;45.99;96645.72;6196758;28;128406;-59
2021/01/24 09:43:16;;;;;;;;;31.20;27.60;;;;;11.59;45.50;96650.13;6199988;28;127683;-58
2021/01/24 09:46:18;;;;;;;;;26.60;24.60;;;;;11.70;45.62;96654.34;6202530;28;125380;-60
2021/01/24 09:49:19;;;;;;;;;24.60;23.60;;;;;11.48;45.55;96651.31;6204899;28;127596;-59
2021/01/24 09:52:20;;;;;;;;;29.00;23.80;;;;;10.98;45.81;96609.31;6203893;28;125613;-58
2021/01/24 09:55:22;;;;;;;;;26.40;25.00;;;;;11.26;45.93;96649.00;6204378;28;125048;-59
2021/01/24 09:58:23;;;;;;;;;28.00;25.50;;;;;11.03;46.20;96648.91;6203181;28;127312;-59
2021/01/24 10:01:25;;;;;;;;;23.00;20.25;;;;;10.86;46.58;96671.63;6198431;28;128009;-59
2021/01/24 10:04:27;;;;;;;;;24.00;21.00;;;;;10.86;46.44;96668.13;6198442;28;128222;-58
2021/01/24 10:07:28;;;;;;;;;25.50;20.00;;;;;10.81;46.50;96660.88;6203677;28;127575;-58
2021/01/24 10:10:29;;;;;;;;;24.00;23.00;;;;;10.72;46.91;96664.41;6196829;28;125641;-59
2021/01/24 10:13:31;;;;;;;;;25.50;21.50;;;;;10.25;47.02;96598.34;6204385;28;126366;-59
2021/01/24 10:16:32;;;;;;;;;24.00;22.50;;;;;10.59;47.19;96654.25;6205902;28;128104;-58
2021/01/24 10:19:34;;;;;;;;;22.50;20.50;;;;;11.05;46.61;96681.75;6206716;28;125853;-59
2021/01/24 10:22:36;;;;;;;;;19.60;17.60;;;;;10.99;45.88;96635.19;6207567;28;126518;-59
2021/01/24 10:25:37;;;;;;;;;16.00;16.00;;;;;11.35;45.36;96656.50;6188745;28;127217;-59
2021/01/24 10:28:38;;;;;;;;;19.40;18.40;;;;;11.31;44.81;96607.72;6200417;28;125316;-59
2021/01/24 10:31:40;;;;;;;;;19.80;18.80;;;;;11.56;45.04;96666.88;6208483;28;126917;-59
2021/01/24 10:34:42;;;;;;;;;21.00;18.60;;;;;11.71;44.53;96679.44;6209118;28;126607;-60
2021/01/24 10:37:43;;;;;;;;;20.00;17.25;;;;;11.50;44.14;96618.63;6190659;28;127749;-60
2021/01/24 10:40:44;;;;;;;;;21.00;18.00;;;;;11.97;44.01;96675.44;6199500;28;125596;-59
2021/01/24 10:43:46;;;;;;;;;22.50;20.00;;;;;12.02;43.74;96671.91;6197301;28;126242;-60
2021/01/24 10:47:06;;;;;;;;;25.25;23.00;;;;;12.07;43.31;96680.75;6207918;28;124645;-59
2021/01/24 10:50:08;;;;;;;;;25.60;22.00;;;;;11.89;43.31;96697.66;6207847;28;127988;-60
2021/01/24 10:53:10;;;;;;;;;25.50;21.00;;;;;11.91;43.25;96683.91;6202451;28;126180;-59
2021/01/24 10:56:11;;;;;;;;;24.60;22.00;;;;;12.09;43.15;96686.69;6200436;28;127437;-59
2021/01/24 10:59:13;;;;;;;;;22.20;20.20;;;;;12.03;43.08;96687.00;6207429;28;125642;-59
2021/01/24 11:02:14;;;;;;;;;28.00;24.40;;;;;11.71;43.30;96672.16;6205719;28;125283;-59
2021/01/24 11:05:16;;;;;;;;;29.00;24.80;;;;;11.91;43.32;96689.28;6203064;28;126476;-60
2021/01/24 11:08:17;;;;;;;;;30.60;28.00;;;;;11.91;43.19;96692.00;6207327;28;128306;-58
2021/01/24 11:11:20;;;;;;;;;29.75;25.75;;;;;12.14;43.03;96699.34;6198003;28;128020;-59
2021/01/24 11:14:21;;;;;;;;;29.67;26.00;;;;;12.10;42.75;96715.31;6207561;28;125571;-59
2021/01/24 11:17:23;;;;;;;;;26.00;22.50;;;;;12.20;42.87;96716.31;6203958;28;124703;-60
2021/01/24 11:20:25;;;;;;;;;26.00;22.75;;;;;11.99;42.80;96705.69;6196646;28;127533;-60
2021/01/24 11:23:26;;;;;;;;;32.20;25.20;;;;;11.95;42.73;96728.13;6205798;28;127438;-60
2021/01/24 11:26:27;;;;;;;;;28.00;24.40;;;;;11.73;43.24;96725.09;6198592;28;126560;-60
2021/01/24 11:29:29;;;;;;;;;33.60;29.00;;;;;11.46;43.58;96720.91;6205546;28;127722;-59
2021/01/24 11:32:30;;;;;;;;;29.00;26.80;;;;;11.40;43.99;96730.09;6204552;28;126836;-60
2021/01/24 11:35:42;;;;;;;;;29.75;27.00;;;;;11.66;43.44;96728.06;6205705;28;124803;-60
2021/01/24 11:38:44;;;;;;;;;30.00;25.20;;;;;11.39;43.65;96673.72;6188676;28;125298;-59
2021/01/24 11:41:57;;;;;;;;;30.00;28.00;;;;;11.67;43.54;96717.00;6183256;28;126893;-60
2021/01/24 11:44:58;;;;;;;;;37.00;27.25;;;;;11.90;43.25;96722.78;6207443;28;125445;-59
2021/01/24 11:48:00;;;;;;;;;28.00;26.00;;;;;11.91;42.81;96729.78;6198410;28;125475;-59
2021/01/24 11:51:02;;;;;;;;;26.25;24.25;;;;;11.77;42.73;96720.72;6205334;28;126535;-60
2021/01/24 11:54:04;;;;;;;;;30.00;26.00;;;;;11.53;42.93;96686.31;6199229;28;125795;-59
2021/01/24 11:57:06;;;;;;;;;35.00;29.00;;;;;11.34;43.08;96679.97;6194721;28;98554;-59
2021/01/24 12:00:08;;;;;;;;;36.40;28.40;;;;;11.88;42.75;96741.13;6205175;28;127187;-60
2021/01/24 12:03:10;;;;;;;;;31.80;28.00;;;;;11.85;42.85;96745.22;6183442;28;125580;-59
2021/01/24 12:06:12;;;;;;;;;29.40;26.80;;;;;11.88;42.80;96752.75;6179467;28;126591;-60
2021/01/24 12:09:13;;;;;;;;;29.00;25.50;;;;;11.86;42.73;96748.72;6199376;28;128228;-60
2021/01/24 12:12:14;;;;;;;;;27.00;24.25;;;;;11.86;42.69;96760.34;6201000;28;125879;-59
2021/01/24 12:15:16;;;;;;;;;28.00;23.75;;;;;11.65;42.90;96762.34;6205762;28;126236;-60
2021/01/24 12:18:18;;;;;;;;;24.60;20.60;;;;;11.56;43.14;96763.22;6204677;28;126626;-59
2021/01/24 12:21:19;;;;;;;;;27.00;25.20;;;;;11.18;43.46;96719.72;6203721;28;125052;-59
2021/01/24 12:24:20;;;;;;;;;26.00;21.00;;;;;11.48;43.71;96756.53;6198047;28;125843;-59
2021/01/24 12:27:22;;;;;;;;;30.60;25.40;;;;;11.70;43.65;96761.50;6187038;28;126522;-59
2021/01/24 12:30:24;;;;;;;;;27.80;25.20;;;;;11.56;43.17;96714.63;6198215;28;127389;-59
2021/01/24 12:33:27;;;;;;;;;25.50;22.50;;;;;12.11;42.55;96762.84;6198953;28;125238;-60
2021/01/24 12:36:28;;;;;;;;;27.00;24.00;;;;;12.22;42.41;96798.66;6203300;28;125833;-59
2021/01/24 12:39:30;;;;;;;;;25.00;22.80;;;;;12.30;42.22;96762.13;6199212;28;126557;-58
2021/01/24 12:42:31;;;;;;;;;25.00;23.00;;;;;12.00;42.02;96703.78;6198737;28;128035;-59
2021/01/24 12:45:33;;;;;;;;;29.40;25.00;;;;;12.18;41.62;96735.50;6193139;28;126534;-58
2021/01/24 12:48:34;;;;;;;;;25.00;22.00;;;;;12.57;41.84;96773.22;6201467;28;124651;-58
2021/01/24 12:51:36;;;;;;;;;24.50;21.00;;;;;12.88;41.33;96768.28;6196277;28;126491;-59
2021/01/24 12:54:37;;;;;;;;;24.20;22.80;;;;;12.99;40.73;96750.88;6202041;28;127224;-59
2021/01/24 12:57:39;;;;;;;;;28.25;25.00;;;;;13.27;40.21;96768.13;6195492;28;127038;-60
2021/01/24 13:00:41;;;;;;;;;23.00;21.00;;;;;13.31;39.73;96767.25;6202671;28;126438;-60
2021/01/24 13:03:42;;;;;;;;;25.75;22.00;;;;;13.26;39.61;96766.50;6197076;28;125843;-59
2021/01/24 13:06:44;;;;;;;;;24.00;21.00;;;;;13.57;39.46;96766.91;6194640;28;125201;-59
2021/01/24 13:09:46;;;;;;;;;25.40;21.40;;;;;14.06;38.88;96758.34;6204514;28;126815;-59
2021/01/24 13:12:47;;;;;;;;;24.60;21.00;;;;;14.48;37.96;96760.06;6193549;28;127027;-60
2021/01/24 13:15:49;;;;;;;;;24.00;19.60;;;;;14.84;37.29;96771.09;6203808;28;127111;-59
2021/01/24 13:18:50;;;;;;;;;21.00;19.60;;;;;14.76;36.68;96734.59;6194101;28;125526;-60
2021/01/24 13:21:52;;;;;;;;;24.00;21.80;;;;;15.07;36.45;96770.09;6199900;28;125401;-60
2021/01/24 13:24:53;;;;;;;;;24.00;22.60;;;;;15.02;36.50;96779.13;6198367;28;126133;-60
2021/01/24 13:27:55;;;;;;;;;21.60;19.60;;;;;14.98;36.62;96789.00;6190599;28;126139;-59
2021/01/24 13:30:56;;;;;;;;;22.00;20.00;;;;;14.74;36.67;96775.59;6195701;28;126533;-59
2021/01/24 13:33:58;;;;;;;;;22.60;21.00;;;;;15.00;36.60;96794.13;6202031;28;127175;-60
2021/01/24 13:37:00;;;;;;;;;23.00;21.00;;;;;14.99;36.59;96806.88;6179678;28;127738;-59
2021/01/24 13:40:02;;;;;;;;;23.00;20.00;;;;;14.72;36.62;96777.81;6201767;28;125299;-58
2021/01/24 13:43:04;;;;;;;;;24.67;23.00;;;;;14.42;36.93;96761.25;6202868;28;126240;-60
2021/01/24 13:46:05;;;;;;;;;23.00;21.75;;;;;14.10;37.41;96776.41;6196957;28;126742;-60
2021/01/24 13:49:07;;;;;;;;;26.00;23.40;;;;;14.03;37.66;96807.66;6191898;28;128254;-60
2021/01/24 13:52:08;;;;;;;;;27.40;23.00;;;;;14.05;38.15;96811.69;6199435;28;126668;-59